sensor_id;sensor_type;location;lat;lon;timestamp;P1;durP1;ratioP1;P2;durP2;ratioP2
59310;SDS011;45078;51.654;21.250;2024-02-21T00:01:21;10.63;;;3.03;;
59310;SDS011;45078;51.654;21.250;2024-02-21T00:03:47;12.35;;;3.05;;
59310;SDS011;45078;51.654;21.250;2024-02-21T00:06:13;8.85;;;3.47;;
59310;SDS011;45078;51.654;21.250;2024-02-21T00:08:39;7.88;;;2.80;;
59310;SDS011;45078;51.654;21.250;2024-02-21T00:11:04;11.95;;;3.15;;
59310;SDS011;45078;51.654;21.250;2024-02-21T00:13:30;11.68;;;2.88;;
59310;SDS011;45078;51.654;21.250;2024-02-21T00:15:56;7.95;;;2.85;;
59310;SDS011;45078;51.654;21.250;2024-02-21T00:18:21;11.65;;;2.97;;
59310;SDS011;45078;51.654;21.250;2024-02-21T00:20:47;7.15;;;2.90;;
59310;SDS011;45078;51.654;21.250;2024-02-21T00:23:13;10.85;;;3.03;;
59310;SDS011;45078;51.654;21.250;2024-02-21T00:25:38;11.13;;;3.30;;
59310;SDS011;45078;51.654;21.250;2024-02-21T00:28:04;10.10;;;3.30;;
59310;SDS011;45078;51.654;21.250;2024-02-21T00:30:31;12.30;;;3.30;;
59310;SDS011;45078;51.654;21.250;2024-02-21T00:32:56;8.70;;;2.75;;
59310;SDS011;45078;51.654;21.250;2024-02-21T00:35:22;11.88;;;2.80;;
59310;SDS011;45078;51.654;21.250;2024-02-21T00:37:48;11.07;;;3.00;;
59310;SDS011;45078;51.654;21.250;2024-02-21T00:40:13;9.48;;;2.78;;
59310;SDS011;45078;51.654;21.250;2024-02-21T00:42:44;10.00;;;3.00;;
59310;SDS011;45078;51.654;21.250;2024-02-21T00:45:11;12.60;;;2.97;;
59310;SDS011;45078;51.654;21.250;2024-02-21T00:47:36;11.30;;;2.97;;
59310;SDS011;45078;51.654;21.250;2024-02-21T00:50:02;10.07;;;2.90;;
59310;SDS011;45078;51.654;21.250;2024-02-21T00:52:28;11.32;;;3.08;;
59310;SDS011;45078;51.654;21.250;2024-02-21T00:54:53;8.20;;;2.50;;
59310;SDS011;45078;51.654;21.250;2024-02-21T00:57:19;10.68;;;3.08;;
59310;SDS011;45078;51.654;21.250;2024-02-21T00:59:44;10.80;;;3.20;;
59310;SDS011;45078;51.654;21.250;2024-02-21T01:02:10;6.90;;;2.70;;
59310;SDS011;45078;51.654;21.250;2024-02-21T01:04:36;6.78;;;2.67;;
59310;SDS011;45078;51.654;21.250;2024-02-21T01:07:01;8.50;;;2.90;;
59310;SDS011;45078;51.654;21.250;2024-02-21T01:09:27;10.85;;;3.33;;
59310;SDS011;45078;51.654;21.250;2024-02-21T01:11:53;8.45;;;2.33;;
59310;SDS011;45078;51.654;21.250;2024-02-21T01:14:18;10.43;;;3.00;;
59310;SDS011;45078;51.654;21.250;2024-02-21T01:16:44;7.40;;;3.13;;
59310;SDS011;45078;51.654;21.250;2024-02-21T01:19:10;8.90;;;2.85;;
59310;SDS011;45078;51.654;21.250;2024-02-21T01:21:35;10.50;;;3.03;;
59310;SDS011;45078;51.654;21.250;2024-02-21T01:24:01;12.00;;;2.88;;
59310;SDS011;45078;51.654;21.250;2024-02-21T01:26:27;7.97;;;2.65;;
59310;SDS011;45078;51.654;21.250;2024-02-21T01:28:53;8.80;;;2.50;;
59310;SDS011;45078;51.654;21.250;2024-02-21T01:31:18;12.25;;;3.17;;
59310;SDS011;45078;51.654;21.250;2024-02-21T01:33:44;9.77;;;2.22;;
59310;SDS011;45078;51.654;21.250;2024-02-21T01:36:10;13.27;;;2.85;;
59310;SDS011;45078;51.654;21.250;2024-02-21T01:38:35;9.40;;;2.70;;
59310;SDS011;45078;51.654;21.250;2024-02-21T01:41:01;10.43;;;3.10;;
59310;SDS011;45078;51.654;21.250;2024-02-21T01:43:27;7.40;;;2.72;;
59310;SDS011;45078;51.654;21.250;2024-02-21T01:45:54;7.85;;;2.40;;
59310;SDS011;45078;51.654;21.250;2024-02-21T01:48:23;7.38;;;3.08;;
59310;SDS011;45078;51.654;21.250;2024-02-21T01:50:50;12.15;;;2.88;;
59310;SDS011;45078;51.654;21.250;2024-02-21T01:53:18;6.65;;;2.53;;
59310;SDS011;45078;51.654;21.250;2024-02-21T01:55:46;11.38;;;2.25;;
59310;SDS011;45078;51.654;21.250;2024-02-21T01:58:15;7.40;;;2.65;;
59310;SDS011;45078;51.654;21.250;2024-02-21T02:00:42;7.47;;;2.80;;
59310;SDS011;45078;51.654;21.250;2024-02-21T02:03:12;7.47;;;2.60;;
59310;SDS011;45078;51.654;21.250;2024-02-21T02:05:42;11.07;;;3.17;;
59310;SDS011;45078;51.654;21.250;2024-02-21T02:08:13;8.32;;;3.05;;
59310;SDS011;45078;51.654;21.250;2024-02-21T02:10:39;9.38;;;3.25;;
59310;SDS011;45078;51.654;21.250;2024-02-21T02:13:05;10.25;;;3.40;;
59310;SDS011;45078;51.654;21.250;2024-02-21T02:15:44;7.82;;;3.05;;
59310;SDS011;45078;51.654;21.250;2024-02-21T02:18:11;11.75;;;3.33;;
59310;SDS011;45078;51.654;21.250;2024-02-21T02:20:37;5.10;;;2.55;;
59310;SDS011;45078;51.654;21.250;2024-02-21T02:23:10;8.20;;;2.70;;
59310;SDS011;45078;51.654;21.250;2024-02-21T02:25:37;13.07;;;3.50;;
59310;SDS011;45078;51.654;21.250;2024-02-21T02:28:04;8.63;;;3.28;;
59310;SDS011;45078;51.654;21.250;2024-02-21T02:30:37;9.02;;;3.22;;
59310;SDS011;45078;51.654;21.250;2024-02-21T02:33:03;10.25;;;3.28;;
59310;SDS011;45078;51.654;21.250;2024-02-21T02:35:30;12.15;;;3.63;;
59310;SDS011;45078;51.654;21.250;2024-02-21T02:37:56;6.70;;;3.13;;
59310;SDS011;45078;51.654;21.250;2024-02-21T02:40:21;11.00;;;3.67;;
59310;SDS011;45078;51.654;21.250;2024-02-21T02:42:48;7.93;;;3.10;;
59310;SDS011;45078;51.654;21.250;2024-02-21T02:45:14;14.07;;;3.88;;
59310;SDS011;45078;51.654;21.250;2024-02-21T02:47:40;12.20;;;4.13;;
59310;SDS011;45078;51.654;21.250;2024-02-21T02:50:07;12.15;;;4.15;;
59310;SDS011;45078;51.654;21.250;2024-02-21T02:52:32;12.63;;;4.60;;
59310;SDS011;45078;51.654;21.250;2024-02-21T02:54:58;12.15;;;4.00;;
59310;SDS011;45078;51.654;21.250;2024-02-21T02:57:24;15.77;;;4.22;;
59310;SDS011;45078;51.654;21.250;2024-02-21T02:59:50;8.88;;;5.03;;
59310;SDS011;45078;51.654;21.250;2024-02-21T03:02:16;9.50;;;4.22;;
59310;SDS011;45078;51.654;21.250;2024-02-21T03:04:42;9.23;;;3.65;;
59310;SDS011;45078;51.654;21.250;2024-02-21T03:07:08;9.48;;;4.20;;
59310;SDS011;45078;51.654;21.250;2024-02-21T03:09:34;12.75;;;4.88;;
59310;SDS011;45078;51.654;21.250;2024-02-21T03:12:00;15.57;;;4.25;;
59310;SDS011;45078;51.654;21.250;2024-02-21T03:14:30;12.95;;;4.28;;
59310;SDS011;45078;51.654;21.250;2024-02-21T03:16:57;13.75;;;4.05;;
59310;SDS011;45078;51.654;21.250;2024-02-21T03:19:23;12.55;;;4.85;;
59310;SDS011;45078;51.654;21.250;2024-02-21T03:21:49;14.07;;;5.13;;
59310;SDS011;45078;51.654;21.250;2024-02-21T03:24:15;14.88;;;5.40;;
59310;SDS011;45078;51.654;21.250;2024-02-21T03:26:41;15.43;;;5.38;;
59310;SDS011;45078;51.654;21.250;2024-02-21T03:29:07;15.07;;;4.90;;
59310;SDS011;45078;51.654;21.250;2024-02-21T03:31:34;13.32;;;5.55;;
59310;SDS011;45078;51.654;21.250;2024-02-21T03:34:00;14.68;;;5.13;;
59310;SDS011;45078;51.654;21.250;2024-02-21T03:36:26;11.73;;;5.22;;
59310;SDS011;45078;51.654;21.250;2024-02-21T03:38:52;9.60;;;4.72;;
59310;SDS011;45078;51.654;21.250;2024-02-21T03:41:19;17.35;;;5.28;;
59310;SDS011;45078;51.654;21.250;2024-02-21T03:43:44;19.13;;;5.63;;
59310;SDS011;45078;51.654;21.250;2024-02-21T03:46:10;12.88;;;5.50;;
59310;SDS011;45078;51.654;21.250;2024-02-21T03:48:36;12.38;;;5.07;;
59310;SDS011;45078;51.654;21.250;2024-02-21T03:51:02;13.38;;;4.60;;
59310;SDS011;45078;51.654;21.250;2024-02-21T03:53:28;14.75;;;5.57;;
59310;SDS011;45078;51.654;21.250;2024-02-21T03:55:53;16.95;;;5.90;;
59310;SDS011;45078;51.654;21.250;2024-02-21T03:58:19;13.93;;;5.63;;
59310;SDS011;45078;51.654;21.250;2024-02-21T04:00:45;12.13;;;5.85;;
59310;SDS011;45078;51.654;21.250;2024-02-21T04:03:11;12.45;;;5.30;;
59310;SDS011;45078;51.654;21.250;2024-02-21T04:05:37;14.60;;;5.55;;
59310;SDS011;45078;51.654;21.250;2024-02-21T04:08:04;18.58;;;6.25;;
59310;SDS011;45078;51.654;21.250;2024-02-21T04:10:30;15.23;;;6.30;;
59310;SDS011;45078;51.654;21.250;2024-02-21T04:12:56;17.20;;;6.47;;
59310;SDS011;45078;51.654;21.250;2024-02-21T04:15:21;16.95;;;6.00;;
59310;SDS011;45078;51.654;21.250;2024-02-21T04:17:47;17.25;;;7.05;;
59310;SDS011;45078;51.654;21.250;2024-02-21T04:20:14;14.65;;;5.38;;
59310;SDS011;45078;51.654;21.250;2024-02-21T04:22:42;15.90;;;5.75;;
59310;SDS011;45078;51.654;21.250;2024-02-21T04:25:09;22.48;;;6.82;;
59310;SDS011;45078;51.654;21.250;2024-02-21T04:27:35;24.05;;;6.85;;
59310;SDS011;45078;51.654;21.250;2024-02-21T04:30:02;15.88;;;5.65;;
59310;SDS011;45078;51.654;21.250;2024-02-21T04:32:28;16.48;;;5.78;;
59310;SDS011;45078;51.654;21.250;2024-02-21T04:34:54;15.15;;;6.40;;
59310;SDS011;45078;51.654;21.250;2024-02-21T04:37:19;17.40;;;6.45;;
59310;SDS011;45078;51.654;21.250;2024-02-21T04:39:45;18.33;;;6.13;;
59310;SDS011;45078;51.654;21.250;2024-02-21T04:42:11;14.10;;;6.45;;
59310;SDS011;45078;51.654;21.250;2024-02-21T04:44:37;17.42;;;6.13;;
59310;SDS011;45078;51.654;21.250;2024-02-21T04:47:03;18.02;;;6.53;;
59310;SDS011;45078;51.654;21.250;2024-02-21T04:49:29;14.00;;;5.72;;
59310;SDS011;45078;51.654;21.250;2024-02-21T04:51:55;15.45;;;6.45;;
59310;SDS011;45078;51.654;21.250;2024-02-21T04:54:20;16.52;;;6.90;;
59310;SDS011;45078;51.654;21.250;2024-02-21T04:56:46;14.02;;;5.93;;
59310;SDS011;45078;51.654;21.250;2024-02-21T04:59:12;16.25;;;7.15;;
59310;SDS011;45078;51.654;21.250;2024-02-21T05:01:37;24.27;;;7.00;;
59310;SDS011;45078;51.654;21.250;2024-02-21T05:04:03;20.80;;;7.38;;
59310;SDS011;45078;51.654;21.250;2024-02-21T05:06:29;12.45;;;5.40;;
59310;SDS011;45078;51.654;21.250;2024-02-21T05:08:54;22.92;;;7.38;;
59310;SDS011;45078;51.654;21.250;2024-02-21T05:11:21;12.27;;;6.63;;
59310;SDS011;45078;51.654;21.250;2024-02-21T05:13:47;21.90;;;7.35;;
59310;SDS011;45078;51.654;21.250;2024-02-21T05:16:12;19.88;;;7.22;;
59310;SDS011;45078;51.654;21.250;2024-02-21T05:18:39;18.65;;;7.45;;
59310;SDS011;45078;51.654;21.250;2024-02-21T05:21:05;18.58;;;7.30;;
59310;SDS011;45078;51.654;21.250;2024-02-21T05:23:31;17.65;;;6.57;;
59310;SDS011;45078;51.654;21.250;2024-02-21T05:25:57;20.48;;;7.15;;
59310;SDS011;45078;51.654;21.250;2024-02-21T05:28:22;16.05;;;7.38;;
59310;SDS011;45078;51.654;21.250;2024-02-21T05:30:48;20.15;;;7.32;;
59310;SDS011;45078;51.654;21.250;2024-02-21T05:33:14;18.50;;;7.43;;
59310;SDS011;45078;51.654;21.250;2024-02-21T05:35:46;20.92;;;8.18;;
59310;SDS011;45078;51.654;21.250;2024-02-21T05:38:13;18.05;;;6.25;;
59310;SDS011;45078;51.654;21.250;2024-02-21T05:40:38;24.92;;;7.53;;
59310;SDS011;45078;51.654;21.250;2024-02-21T05:43:04;20.63;;;7.20;;
59310;SDS011;45078;51.654;21.250;2024-02-21T05:45:30;19.85;;;6.63;;
59310;SDS011;45078;51.654;21.250;2024-02-21T05:47:55;23.83;;;7.28;;
59310;SDS011;45078;51.654;21.250;2024-02-21T05:50:22;21.17;;;7.45;;
59310;SDS011;45078;51.654;21.250;2024-02-21T05:52:50;19.40;;;7.65;;
59310;SDS011;45078;51.654;21.250;2024-02-21T05:55:16;25.25;;;7.13;;
59310;SDS011;45078;51.654;21.250;2024-02-21T05:57:42;22.42;;;7.05;;
59310;SDS011;45078;51.654;21.250;2024-02-21T06:00:08;17.90;;;7.07;;
59310;SDS011;45078;51.654;21.250;2024-02-21T06:02:34;25.63;;;8.38;;
59310;SDS011;45078;51.654;21.250;2024-02-21T06:04:59;16.15;;;7.25;;
59310;SDS011;45078;51.654;21.250;2024-02-21T06:07:25;20.00;;;8.10;;
59310;SDS011;45078;51.654;21.250;2024-02-21T06:09:51;17.23;;;6.75;;
59310;SDS011;45078;51.654;21.250;2024-02-21T06:12:17;15.75;;;6.90;;
59310;SDS011;45078;51.654;21.250;2024-02-21T06:14:42;22.50;;;7.70;;
59310;SDS011;45078;51.654;21.250;2024-02-21T06:17:08;15.00;;;5.95;;
59310;SDS011;45078;51.654;21.250;2024-02-21T06:19:33;22.40;;;7.57;;
59310;SDS011;45078;51.654;21.250;2024-02-21T06:21:59;14.55;;;6.50;;
59310;SDS011;45078;51.654;21.250;2024-02-21T06:24:25;16.95;;;6.18;;
59310;SDS011;45078;51.654;21.250;2024-02-21T06:26:50;18.48;;;6.57;;
59310;SDS011;45078;51.654;21.250;2024-02-21T06:29:16;14.63;;;6.55;;
59310;SDS011;45078;51.654;21.250;2024-02-21T06:31:42;20.98;;;7.45;;
59310;SDS011;45078;51.654;21.250;2024-02-21T06:34:07;18.27;;;6.82;;
59310;SDS011;45078;51.654;21.250;2024-02-21T06:36:33;29.52;;;7.90;;
59310;SDS011;45078;51.654;21.250;2024-02-21T06:38:59;23.42;;;8.30;;
59310;SDS011;45078;51.654;21.250;2024-02-21T06:41:24;14.93;;;6.63;;
59310;SDS011;45078;51.654;21.250;2024-02-21T06:43:50;21.60;;;6.35;;
59310;SDS011;45078;51.654;21.250;2024-02-21T06:46:22;19.35;;;6.38;;
59310;SDS011;45078;51.654;21.250;2024-02-21T06:51:14;16.70;;;6.47;;
59310;SDS011;45078;51.654;21.250;2024-02-21T06:53:40;21.30;;;7.75;;
59310;SDS011;45078;51.654;21.250;2024-02-21T06:56:06;23.33;;;7.57;;
59310;SDS011;45078;51.654;21.250;2024-02-21T06:58:31;15.38;;;7.22;;
59310;SDS011;45078;51.654;21.250;2024-02-21T07:00:57;16.23;;;5.68;;
59310;SDS011;45078;51.654;21.250;2024-02-21T07:03:23;18.98;;;7.40;;
59310;SDS011;45078;51.654;21.250;2024-02-21T07:05:49;23.23;;;7.60;;
59310;SDS011;45078;51.654;21.250;2024-02-21T07:08:15;24.33;;;7.82;;
59310;SDS011;45078;51.654;21.250;2024-02-21T07:10:41;17.30;;;7.25;;
59310;SDS011;45078;51.654;21.250;2024-02-21T07:13:06;30.52;;;8.43;;
59310;SDS011;45078;51.654;21.250;2024-02-21T07:15:32;28.30;;;8.05;;
59310;SDS011;45078;51.654;21.250;2024-02-21T07:17:58;17.20;;;5.90;;
59310;SDS011;45078;51.654;21.250;2024-02-21T07:20:24;21.52;;;7.82;;
59310;SDS011;45078;51.654;21.250;2024-02-21T07:22:50;24.83;;;8.75;;
59310;SDS011;45078;51.654;21.250;2024-02-21T07:25:15;28.52;;;8.95;;
59310;SDS011;45078;51.654;21.250;2024-02-21T07:27:42;15.45;;;6.38;;
59310;SDS011;45078;51.654;21.250;2024-02-21T07:30:09;21.20;;;6.88;;
59310;SDS011;45078;51.654;21.250;2024-02-21T07:32:35;24.92;;;9.15;;
59310;SDS011;45078;51.654;21.250;2024-02-21T07:35:00;26.63;;;8.00;;
59310;SDS011;45078;51.654;21.250;2024-02-21T07:37:26;28.38;;;8.40;;
59310;SDS011;45078;51.654;21.250;2024-02-21T07:39:52;14.35;;;5.93;;
59310;SDS011;45078;51.654;21.250;2024-02-21T07:42:17;14.02;;;8.00;;
59310;SDS011;45078;51.654;21.250;2024-02-21T07:44:43;24.38;;;8.52;;
59310;SDS011;45078;51.654;21.250;2024-02-21T07:47:09;21.27;;;8.52;;
59310;SDS011;45078;51.654;21.250;2024-02-21T07:49:42;17.27;;;6.15;;
59310;SDS011;45078;51.654;21.250;2024-02-21T07:52:11;25.02;;;7.72;;
59310;SDS011;45078;51.654;21.250;2024-02-21T07:54:37;18.08;;;8.27;;
59310;SDS011;45078;51.654;21.250;2024-02-21T07:57:02;18.67;;;7.88;;
59310;SDS011;45078;51.654;21.250;2024-02-21T07:59:29;15.13;;;6.03;;
59310;SDS011;45078;51.654;21.250;2024-02-21T08:01:58;11.98;;;5.65;;
59310;SDS011;45078;51.654;21.250;2024-02-21T08:04:24;19.88;;;8.63;;
59310;SDS011;45078;51.654;21.250;2024-02-21T08:06:53;27.77;;;8.82;;
59310;SDS011;45078;51.654;21.250;2024-02-21T08:09:26;23.67;;;7.30;;
59310;SDS011;45078;51.654;21.250;2024-02-21T08:11:51;24.25;;;8.68;;
59310;SDS011;45078;51.654;21.250;2024-02-21T08:14:19;18.65;;;8.02;;
59310;SDS011;45078;51.654;21.250;2024-02-21T08:16:45;14.98;;;6.32;;
59310;SDS011;45078;51.654;21.250;2024-02-21T08:19:10;21.55;;;7.55;;
59310;SDS011;45078;51.654;21.250;2024-02-21T08:21:36;15.50;;;6.80;;
59310;SDS011;45078;51.654;21.250;2024-02-21T08:24:02;23.63;;;7.88;;
59310;SDS011;45078;51.654;21.250;2024-02-21T08:26:27;27.80;;;8.85;;
59310;SDS011;45078;51.654;21.250;2024-02-21T08:28:55;18.52;;;7.35;;
59310;SDS011;45078;51.654;21.250;2024-02-21T08:31:24;26.73;;;6.43;;
59310;SDS011;45078;51.654;21.250;2024-02-21T08:33:56;20.48;;;6.75;;
59310;SDS011;45078;51.654;21.250;2024-02-21T08:36:28;17.50;;;6.40;;
59310;SDS011;45078;51.654;21.250;2024-02-21T08:38:57;22.65;;;6.60;;
59310;SDS011;45078;51.654;21.250;2024-02-21T08:41:23;20.92;;;7.18;;
59310;SDS011;45078;51.654;21.250;2024-02-21T08:43:50;21.98;;;8.07;;
59310;SDS011;45078;51.654;21.250;2024-02-21T08:46:16;24.63;;;8.90;;
59310;SDS011;45078;51.654;21.250;2024-02-21T08:48:42;22.20;;;7.43;;
59310;SDS011;45078;51.654;21.250;2024-02-21T08:51:10;22.27;;;7.57;;
59310;SDS011;45078;51.654;21.250;2024-02-21T08:53:36;22.00;;;7.75;;
59310;SDS011;45078;51.654;21.250;2024-02-21T08:56:03;23.92;;;8.30;;
59310;SDS011;45078;51.654;21.250;2024-02-21T08:58:29;19.65;;;7.15;;
59310;SDS011;45078;51.654;21.250;2024-02-21T09:00:54;19.80;;;6.82;;
59310;SDS011;45078;51.654;21.250;2024-02-21T09:03:20;24.60;;;6.88;;
59310;SDS011;45078;51.654;21.250;2024-02-21T09:05:46;33.42;;;8.82;;
59310;SDS011;45078;51.654;21.250;2024-02-21T09:08:12;20.98;;;7.00;;
59310;SDS011;45078;51.654;21.250;2024-02-21T09:10:39;19.30;;;6.70;;
59310;SDS011;45078;51.654;21.250;2024-02-21T09:13:04;19.02;;;6.55;;
59310;SDS011;45078;51.654;21.250;2024-02-21T09:15:31;15.02;;;6.00;;
59310;SDS011;45078;51.654;21.250;2024-02-21T09:17:57;27.35;;;6.75;;
59310;SDS011;45078;51.654;21.250;2024-02-21T09:20:22;20.75;;;6.75;;
59310;SDS011;45078;51.654;21.250;2024-02-21T09:22:48;19.02;;;7.43;;
59310;SDS011;45078;51.654;21.250;2024-02-21T09:25:14;20.17;;;7.07;;
59310;SDS011;45078;51.654;21.250;2024-02-21T09:27:40;16.50;;;7.22;;
59310;SDS011;45078;51.654;21.250;2024-02-21T09:30:06;22.88;;;7.80;;
59310;SDS011;45078;51.654;21.250;2024-02-21T09:32:31;22.05;;;7.05;;
59310;SDS011;45078;51.654;21.250;2024-02-21T09:34:58;22.02;;;7.13;;
59310;SDS011;45078;51.654;21.250;2024-02-21T09:37:23;15.15;;;6.82;;
59310;SDS011;45078;51.654;21.250;2024-02-21T09:39:49;19.73;;;8.05;;
59310;SDS011;45078;51.654;21.250;2024-02-21T09:42:18;21.65;;;6.72;;
59310;SDS011;45078;51.654;21.250;2024-02-21T09:44:46;23.35;;;7.20;;
59310;SDS011;45078;51.654;21.250;2024-02-21T09:47:19;19.50;;;5.22;;
59310;SDS011;45078;51.654;21.250;2024-02-21T09:49:49;21.33;;;7.03;;
59310;SDS011;45078;51.654;21.250;2024-02-21T09:52:17;17.33;;;6.50;;
59310;SDS011;45078;51.654;21.250;2024-02-21T09:54:45;23.55;;;7.28;;
59310;SDS011;45078;51.654;21.250;2024-02-21T09:57:13;12.75;;;5.28;;
59310;SDS011;45078;51.654;21.250;2024-02-21T09:59:40;16.58;;;5.90;;
59310;SDS011;45078;51.654;21.250;2024-02-21T10:02:06;19.10;;;7.00;;
59310;SDS011;45078;51.654;21.250;2024-02-21T10:04:33;15.55;;;6.50;;
59310;SDS011;45078;51.654;21.250;2024-02-21T10:06:59;17.10;;;6.60;;
59310;SDS011;45078;51.654;21.250;2024-02-21T10:09:25;16.83;;;6.18;;
59310;SDS011;45078;51.654;21.250;2024-02-21T10:11:55;14.48;;;5.63;;
59310;SDS011;45078;51.654;21.250;2024-02-21T10:14:21;18.17;;;5.03;;
59310;SDS011;45078;51.654;21.250;2024-02-21T10:16:48;12.63;;;5.68;;
59310;SDS011;45078;51.654;21.250;2024-02-21T10:19:20;13.70;;;4.63;;
59310;SDS011;45078;51.654;21.250;2024-02-21T10:22:05;23.48;;;7.70;;
59310;SDS011;45078;51.654;21.250;2024-02-21T10:24:32;27.63;;;5.05;;
59310;SDS011;45078;51.654;21.250;2024-02-21T10:26:59;19.55;;;6.63;;
59310;SDS011;45078;51.654;21.250;2024-02-21T10:29:32;16.58;;;4.97;;
59310;SDS011;45078;51.654;21.250;2024-02-21T10:34:37;16.27;;;5.35;;
59310;SDS011;45078;51.654;21.250;2024-02-21T10:37:08;13.52;;;5.13;;
59310;SDS011;45078;51.654;21.250;2024-02-21T10:39:35;17.17;;;5.13;;
59310;SDS011;45078;51.654;21.250;2024-02-21T10:42:03;13.38;;;4.78;;
59310;SDS011;45078;51.654;21.250;2024-02-21T10:44:29;15.15;;;4.68;;
59310;SDS011;45078;51.654;21.250;2024-02-21T10:47:01;15.20;;;4.93;;
59310;SDS011;45078;51.654;21.250;2024-02-21T10:49:41;14.52;;;5.05;;
59310;SDS011;45078;51.654;21.250;2024-02-21T10:54:55;9.40;;;4.93;;
59310;SDS011;45078;51.654;21.250;2024-02-21T10:57:24;10.93;;;3.90;;
59310;SDS011;45078;51.654;21.250;2024-02-21T10:59:52;10.07;;;4.20;;
59310;SDS011;45078;51.654;21.250;2024-02-21T11:02:19;14.80;;;4.53;;
59310;SDS011;45078;51.654;21.250;2024-02-21T11:04:46;14.45;;;4.78;;
59310;SDS011;45078;51.654;21.250;2024-02-21T11:07:12;11.93;;;4.93;;
59310;SDS011;45078;51.654;21.250;2024-02-21T11:09:40;9.07;;;3.80;;
59310;SDS011;45078;51.654;21.250;2024-02-21T11:12:19;12.63;;;4.57;;
59310;SDS011;45078;51.654;21.250;2024-02-21T11:17:14;20.88;;;4.38;;
59310;SDS011;45078;51.654;21.250;2024-02-21T11:19:42;16.17;;;4.72;;
59310;SDS011;45078;51.654;21.250;2024-02-21T11:22:14;16.45;;;5.30;;
59310;SDS011;45078;51.654;21.250;2024-02-21T11:24:41;9.98;;;5.10;;
59310;SDS011;45078;51.654;21.250;2024-02-21T11:29:44;17.15;;;5.15;;
59310;SDS011;45078;51.654;21.250;2024-02-21T11:32:10;15.18;;;4.32;;
59310;SDS011;45078;51.654;21.250;2024-02-21T11:34:39;11.30;;;4.68;;
59310;SDS011;45078;51.654;21.250;2024-02-21T11:37:13;12.60;;;4.10;;
59310;SDS011;45078;51.654;21.250;2024-02-21T11:39:42;15.45;;;5.28;;
59310;SDS011;45078;51.654;21.250;2024-02-21T11:42:09;12.00;;;4.55;;
59310;SDS011;45078;51.654;21.250;2024-02-21T11:44:36;10.77;;;4.53;;
59310;SDS011;45078;51.654;21.250;2024-02-21T11:47:07;12.18;;;4.22;;
59310;SDS011;45078;51.654;21.250;2024-02-21T11:49:43;14.85;;;4.72;;
59310;SDS011;45078;51.654;21.250;2024-02-21T11:52:11;16.58;;;4.10;;
59310;SDS011;45078;51.654;21.250;2024-02-21T11:54:40;12.88;;;4.00;;
59310;SDS011;45078;51.654;21.250;2024-02-21T11:57:06;12.18;;;4.60;;
59310;SDS011;45078;51.654;21.250;2024-02-21T11:59:32;19.58;;;4.65;;
59310;SDS011;45078;51.654;21.250;2024-02-21T12:01:59;19.48;;;5.55;;
59310;SDS011;45078;51.654;21.250;2024-02-21T12:04:25;19.33;;;4.80;;
59310;SDS011;45078;51.654;21.250;2024-02-21T12:06:54;13.77;;;4.75;;
59310;SDS011;45078;51.654;21.250;2024-02-21T12:09:20;14.73;;;6.13;;
59310;SDS011;45078;51.654;21.250;2024-02-21T12:11:56;18.48;;;5.85;;
59310;SDS011;45078;51.654;21.250;2024-02-21T12:14:27;11.57;;;4.60;;
59310;SDS011;45078;51.654;21.250;2024-02-21T12:16:54;15.90;;;5.57;;
59310;SDS011;45078;51.654;21.250;2024-02-21T12:19:20;17.05;;;5.38;;
59310;SDS011;45078;51.654;21.250;2024-02-21T12:21:47;16.10;;;5.72;;
59310;SDS011;45078;51.654;21.250;2024-02-21T12:26:42;22.75;;;6.97;;
59310;SDS011;45078;51.654;21.250;2024-02-21T12:29:08;14.50;;;5.63;;
59310;SDS011;45078;51.654;21.250;2024-02-21T12:31:35;16.35;;;6.43;;
59310;SDS011;45078;51.654;21.250;2024-02-21T12:34:02;17.63;;;5.88;;
59310;SDS011;45078;51.654;21.250;2024-02-21T12:36:28;15.38;;;5.28;;
59310;SDS011;45078;51.654;21.250;2024-02-21T12:38:54;11.68;;;6.18;;
59310;SDS011;45078;51.654;21.250;2024-02-21T12:41:19;14.52;;;6.20;;
59310;SDS011;45078;51.654;21.250;2024-02-21T12:43:45;15.65;;;5.93;;
59310;SDS011;45078;51.654;21.250;2024-02-21T12:46:12;16.23;;;5.57;;
59310;SDS011;45078;51.654;21.250;2024-02-21T12:48:38;20.17;;;6.85;;
59310;SDS011;45078;51.654;21.250;2024-02-21T12:51:04;16.85;;;6.32;;
59310;SDS011;45078;51.654;21.250;2024-02-21T12:53:30;21.92;;;7.55;;
59310;SDS011;45078;51.654;21.250;2024-02-21T12:55:56;17.77;;;7.18;;
59310;SDS011;45078;51.654;21.250;2024-02-21T12:58:22;20.67;;;7.38;;
59310;SDS011;45078;51.654;21.250;2024-02-21T13:00:48;16.25;;;5.85;;
59310;SDS011;45078;51.654;21.250;2024-02-21T13:03:13;19.95;;;7.13;;
59310;SDS011;45078;51.654;21.250;2024-02-21T13:05:39;16.80;;;6.28;;
59310;SDS011;45078;51.654;21.250;2024-02-21T13:08:05;17.77;;;6.82;;
59310;SDS011;45078;51.654;21.250;2024-02-21T13:10:31;26.60;;;7.32;;
59310;SDS011;45078;51.654;21.250;2024-02-21T13:12:59;17.83;;;5.50;;
59310;SDS011;45078;51.654;21.250;2024-02-21T13:15:25;26.88;;;6.15;;
59310;SDS011;45078;51.654;21.250;2024-02-21T13:17:52;21.95;;;6.25;;
59310;SDS011;45078;51.654;21.250;2024-02-21T13:20:19;19.77;;;5.72;;
59310;SDS011;45078;51.654;21.250;2024-02-21T13:22:45;16.15;;;6.35;;
59310;SDS011;45078;51.654;21.250;2024-02-21T13:25:10;11.25;;;5.32;;
59310;SDS011;45078;51.654;21.250;2024-02-21T13:27:40;21.70;;;6.10;;
59310;SDS011;45078;51.654;21.250;2024-02-21T13:30:06;31.45;;;7.03;;
59310;SDS011;45078;51.654;21.250;2024-02-21T13:32:34;23.33;;;7.05;;
59310;SDS011;45078;51.654;21.250;2024-02-21T13:34:59;11.43;;;5.85;;
59310;SDS011;45078;51.654;21.250;2024-02-21T13:37:26;15.43;;;6.15;;
59310;SDS011;45078;51.654;21.250;2024-02-21T13:39:52;13.90;;;5.70;;
59310;SDS011;45078;51.654;21.250;2024-02-21T13:42:18;18.55;;;6.45;;
59310;SDS011;45078;51.654;21.250;2024-02-21T13:44:44;23.17;;;6.75;;
59310;SDS011;45078;51.654;21.250;2024-02-21T13:47:12;11.55;;;5.32;;
59310;SDS011;45078;51.654;21.250;2024-02-21T13:49:41;15.52;;;4.97;;
59310;SDS011;45078;51.654;21.250;2024-02-21T13:52:07;12.82;;;5.10;;
59310;SDS011;45078;51.654;21.250;2024-02-21T13:54:34;17.88;;;6.80;;
59310;SDS011;45078;51.654;21.250;2024-02-21T13:57:00;17.15;;;6.25;;
59310;SDS011;45078;51.654;21.250;2024-02-21T13:59:27;12.75;;;6.63;;
59310;SDS011;45078;51.654;21.250;2024-02-21T14:01:53;16.80;;;4.75;;
59310;SDS011;45078;51.654;21.250;2024-02-21T14:04:19;14.05;;;6.03;;
59310;SDS011;45078;51.654;21.250;2024-02-21T14:06:45;18.88;;;5.88;;
59310;SDS011;45078;51.654;21.250;2024-02-21T14:09:11;18.92;;;7.25;;
59310;SDS011;45078;51.654;21.250;2024-02-21T14:11:37;25.42;;;6.47;;
59310;SDS011;45078;51.654;21.250;2024-02-21T14:14:04;21.83;;;6.72;;
59310;SDS011;45078;51.654;21.250;2024-02-21T14:16:30;13.52;;;4.10;;
59310;SDS011;45078;51.654;21.250;2024-02-21T14:18:57;14.32;;;4.65;;
59310;SDS011;45078;51.654;21.250;2024-02-21T14:21:22;10.15;;;4.88;;
59310;SDS011;45078;51.654;21.250;2024-02-21T14:23:48;14.98;;;5.53;;
59310;SDS011;45078;51.654;21.250;2024-02-21T14:26:14;17.13;;;4.80;;
59310;SDS011;45078;51.654;21.250;2024-02-21T14:28:39;16.45;;;4.93;;
59310;SDS011;45078;51.654;21.250;2024-02-21T14:31:06;19.95;;;5.50;;
59310;SDS011;45078;51.654;21.250;2024-02-21T14:33:36;18.55;;;5.47;;
59310;SDS011;45078;51.654;21.250;2024-02-21T14:36:02;16.27;;;6.30;;